Terminal Aerodrome Forecast
Issued by NWS

Home | Current Version | Previous Version | Graphics & Text | Print | Product List | Glossary On
Versions: 1 2 3 4 5 6 7 8 9 10 11 12 13 14 15 16 17 18 19 20 21 22 23 24 25 26 27 28
000
FTUS43 KGRB 260520
TAFRHI
TAF
KRHI 260520Z 2606/2706 32006KT P6SM BKN013 OVC025
      TEMPO 2606/2609 BKN009 OVC015
     FM260900 31004KT P6SM SCT015
      TEMPO 2609/2613 1SM BR SCT003 BKN010
     FM261300 32004KT 6SM BR BKN015 BKN030
     FM261500 32005KT P6SM BKN025
     FM262000 31006KT P6SM SCT030
     FM270100 VRB03KT P6SM SKC=

USA.gov is the U.S. government's official web portal to all federal, state and local government web resources and services.